Time;durP1;ratioP1;P1;durP2;ratioP2;P2;SDS_P1;SDS_P2;PMS_P1;PMS_P2;Temp;Humidity;BMP_temperature;BMP_pressure;BME280_temperature;BME280_humidity;BME280_pressure;Samples;Min_cycle;Max_cycle;Signal;HPM_P1;HPM_P2
2021/03/09 00:02:24;;;;;;;4.78;3.95;;;0.00;99.90;;;;;;1974005;72;21067;-72
2021/03/09 00:04:50;;;;;;;7.33;4.33;;;-0.10;99.90;;;;;;1970230;72;21025;-72
2021/03/09 00:07:16;;;;;;;5.80;3.90;;;-0.10;99.90;;;;;;1974190;72;21028;-73
2021/03/09 00:09:44;;;;;;;9.28;3.83;;;-0.20;99.90;;;;;;1974311;72;21059;-72
2021/03/09 00:12:10;;;;;;;8.40;4.35;;;-0.20;99.90;;;;;;1965664;72;21086;-73
2021/03/09 00:14:36;;;;;;;6.72;4.35;;;-0.20;99.90;;;;;;1974474;72;21056;-71
2021/03/09 00:17:02;;;;;;;10.60;4.25;;;-0.20;99.90;;;;;;1974768;73;21038;-72
2021/03/09 00:19:29;;;;;;;11.95;4.25;;;-0.30;99.90;;;;;;1974762;72;21169;-72
2021/03/09 00:21:55;;;;;;;6.45;4.08;;;-0.30;99.90;;;;;;1975258;72;21059;-72
2021/03/09 00:24:21;;;;;;;6.05;4.03;;;-0.30;99.90;;;;;;1973833;72;21067;-72
2021/03/09 00:26:47;;;;;;;8.03;3.90;;;-0.30;99.90;;;;;;1968490;72;21137;-73
2021/03/09 00:29:13;;;;;;;11.12;4.53;;;-0.30;99.90;;;;;;1976931;72;21061;-73
2021/03/09 00:31:39;;;;;;;6.17;3.37;;;-0.30;99.90;;;;;;1970934;72;21055;-73
2021/03/09 00:34:05;;;;;;;7.83;3.95;;;-0.40;99.90;;;;;;1976103;72;21140;-72
2021/03/09 00:36:31;;;;;;;4.28;3.37;;;-0.30;99.90;;;;;;1972656;72;21071;-73
2021/03/09 00:38:58;;;;;;;9.30;4.28;;;-0.30;99.90;;;;;;1974733;72;21064;-73
2021/03/09 00:41:24;;;;;;;3.87;3.27;;;-0.30;99.90;;;;;;1967278;72;21161;-72
2021/03/09 00:43:50;;;;;;;5.33;3.75;;;-0.30;99.90;;;;;;1969937;72;21539;-73
2021/03/09 00:46:16;;;;;;;10.68;5.03;;;-0.30;99.90;;;;;;1975956;72;21447;-72
2021/03/09 00:48:42;;;;;;;5.62;4.08;;;-0.40;99.90;;;;;;1973570;72;21479;-73
2021/03/09 00:51:08;;;;;;;5.58;3.90;;;-0.40;99.90;;;;;;1969028;72;21466;-72
2021/03/09 00:53:34;;;;;;;6.53;3.87;;;-0.40;99.90;;;;;;1985274;72;21063;-72
2021/03/09 00:56:00;;;;;;;10.85;3.87;;;-0.40;99.90;;;;;;1971435;72;21087;-72
2021/03/09 00:58:29;;;;;;;3.70;3.27;;;-0.40;99.90;;;;;;1976688;72;21062;-72
2021/03/09 01:00:54;;;;;;;4.67;3.60;;;-0.40;99.90;;;;;;1974509;72;21096;-72
2021/03/09 01:03:21;;;;;;;6.65;3.83;;;-0.50;99.90;;;;;;1977300;72;21068;-72
2021/03/09 01:05:47;;;;;;;9.00;4.72;;;-0.50;99.90;;;;;;1974626;73;21130;-72
2021/03/09 01:08:13;;;;;;;6.80;3.85;;;-0.50;99.90;;;;;;1964877;72;21054;-72
2021/03/09 01:10:39;;;;;;;6.53;3.75;;;-0.50;99.90;;;;;;1972597;72;21058;-73
2021/03/09 01:13:05;;;;;;;7.20;4.03;;;-0.50;99.90;;;;;;1963470;72;21019;-72
2021/03/09 01:15:31;;;;;;;11.20;4.92;;;-0.60;99.90;;;;;;1967153;72;21102;-72
2021/03/09 01:17:57;;;;;;;7.30;4.20;;;-0.60;99.90;;;;;;1974514;72;21055;-71
2021/03/09 01:20:23;;;;;;;21.27;4.60;;;-0.60;99.90;;;;;;1976438;72;21062;-72
2021/03/09 01:22:49;;;;;;;6.33;4.12;;;-0.70;99.90;;;;;;1985160;72;21027;-72
2021/03/09 01:25:16;;;;;;;6.95;3.70;;;-0.70;99.90;;;;;;1979110;72;21058;-71
2021/03/09 01:27:42;;;;;;;4.83;3.85;;;-0.70;99.90;;;;;;1975912;72;21059;-73
2021/03/09 01:30:08;;;;;;;7.78;4.37;;;-0.70;99.90;;;;;;1974560;72;21067;-72
2021/03/09 01:32:34;;;;;;;7.42;4.00;;;-0.70;99.90;;;;;;1974571;73;21568;-72
2021/03/09 01:35:00;;;;;;;6.15;3.72;;;-0.80;99.90;;;;;;1974542;73;21435;-72
2021/03/09 01:37:26;;;;;;;5.08;3.77;;;-0.80;99.90;;;;;;1974591;73;21467;-72
2021/03/09 01:39:52;;;;;;;5.87;3.98;;;-0.80;99.90;;;;;;1971175;72;21490;-72
2021/03/09 01:42:18;;;;;;;7.25;3.90;;;-0.80;99.90;;;;;;1990048;72;21116;-71
2021/03/09 01:44:45;;;;;;;6.72;3.52;;;-0.70;99.90;;;;;;1977408;72;21035;-71
2021/03/09 01:47:11;;;;;;;5.70;4.00;;;-0.80;99.90;;;;;;1979058;72;21131;-73
2021/03/09 01:49:37;;;;;;;10.20;4.62;;;-0.80;99.90;;;;;;1984182;72;21055;-72
2021/03/09 01:52:03;;;;;;;6.45;3.92;;;-0.80;99.90;;;;;;1986231;72;21050;-72
2021/03/09 01:54:29;;;;;;;6.33;3.92;;;-0.70;99.90;;;;;;1991694;72;21055;-73
2021/03/09 01:56:55;;;;;;;5.72;4.33;;;-0.70;99.90;;;;;;1974616;72;21032;-73
2021/03/09 01:59:21;;;;;;;13.30;4.40;;;-0.80;99.90;;;;;;1970279;72;21055;-72
2021/03/09 02:01:47;;;;;;;7.22;4.25;;;-0.80;99.90;;;;;;1971642;72;21059;-73
2021/03/09 02:04:14;;;;;;;6.60;4.12;;;-0.80;99.90;;;;;;1973615;72;21051;-72
2021/03/09 02:06:40;;;;;;;7.78;5.03;;;-0.80;99.90;;;;;;1970418;72;21105;-72
2021/03/09 02:09:06;;;;;;;7.67;4.15;;;-0.90;99.90;;;;;;1973946;73;21047;-72
2021/03/09 02:11:32;;;;;;;6.10;3.67;;;-0.80;99.90;;;;;;1973873;73;21087;-73
2021/03/09 02:13:58;;;;;;;6.60;4.17;;;-0.80;99.90;;;;;;1970616;72;21133;-71
2021/03/09 02:16:24;;;;;;;6.80;4.58;;;-0.80;99.90;;;;;;1970567;72;21069;-72
2021/03/09 02:18:50;;;;;;;10.40;4.47;;;-0.90;99.90;;;;;;1973910;73;21428;-72
2021/03/09 02:21:17;;;;;;;8.90;3.95;;;-0.90;99.90;;;;;;1971953;72;21446;-73
2021/03/09 02:23:43;;;;;;;8.13;4.35;;;-0.90;99.90;;;;;;1969289;72;21115;-72
2021/03/09 02:26:09;;;;;;;5.85;4.03;;;-0.90;99.90;;;;;;1975061;72;21185;-73
2021/03/09 02:28:35;;;;;;;8.90;4.40;;;-0.90;99.90;;;;;;1973989;72;21084;-73
2021/03/09 02:31:01;;;;;;;6.05;4.30;;;-0.90;99.90;;;;;;1973899;72;21134;-73
2021/03/09 02:33:27;;;;;;;5.15;3.75;;;-0.90;99.90;;;;;;1971868;72;21447;-72
2021/03/09 02:35:54;;;;;;;9.03;5.08;;;-1.00;99.90;;;;;;1975770;72;21439;-72
2021/03/09 02:38:20;;;;;;;7.40;4.55;;;-0.90;99.90;;;;;;1971826;72;21521;-71
2021/03/09 02:40:46;;;;;;;10.70;4.22;;;-0.90;99.90;;;;;;1990916;72;21474;-72
2021/03/09 02:43:12;;;;;;;8.43;4.30;;;-0.90;99.90;;;;;;1990906;72;21094;-73
2021/03/09 02:45:38;;;;;;;6.50;3.95;;;-1.00;99.90;;;;;;1982180;72;21030;-72
2021/03/09 02:48:04;;;;;;;7.08;4.60;;;-1.00;99.90;;;;;;1973777;72;21055;-71
2021/03/09 02:50:32;;;;;;;8.35;4.45;;;-1.00;99.90;;;;;;1973893;72;21055;-73
2021/03/09 02:52:58;;;;;;;6.15;3.83;;;-1.00;99.90;;;;;;1966938;72;21494;-71
2021/03/09 02:55:24;;;;;;;5.65;4.12;;;-1.10;99.90;;;;;;1973886;72;21472;-73
2021/03/09 02:57:50;;;;;;;5.12;3.62;;;-1.10;99.90;;;;;;1973717;72;21568;-72
2021/03/09 03:00:16;;;;;;;5.30;3.77;;;-1.10;99.90;;;;;;1966805;72;21180;-72
2021/03/09 03:02:42;;;;;;;6.53;4.13;;;-1.10;99.90;;;;;;1980395;72;21055;-73
2021/03/09 03:05:09;;;;;;;7.42;4.40;;;-1.10;99.90;;;;;;1973923;72;21091;-71
2021/03/09 03:07:35;;;;;;;7.47;4.40;;;-1.10;99.90;;;;;;1973882;72;21128;-74
2021/03/09 03:10:01;;;;;;;8.88;4.35;;;-1.10;99.90;;;;;;1973178;72;21071;-72
2021/03/09 03:12:27;;;;;;;7.65;4.00;;;-1.20;99.90;;;;;;1974558;72;21176;-73
2021/03/09 03:14:53;;;;;;;9.90;4.60;;;-1.10;99.90;;;;;;1973912;73;21055;-72
2021/03/09 03:17:19;;;;;;;7.92;4.53;;;-1.20;99.90;;;;;;1973903;73;21047;-71
2021/03/09 03:19:45;;;;;;;7.87;4.55;;;-1.10;99.90;;;;;;1969734;72;21125;-71
2021/03/09 03:22:11;;;;;;;7.85;4.15;;;-1.10;99.90;;;;;;1967978;72;21109;-71
2021/03/09 03:24:37;;;;;;;5.40;3.80;;;-1.20;99.90;;;;;;1972607;72;21122;-71
2021/03/09 03:27:04;;;;;;;7.53;4.83;;;-1.10;99.90;;;;;;1967182;72;21168;-71
2021/03/09 03:29:30;;;;;;;5.62;3.90;;;-1.10;99.90;;;;;;1970559;72;21136;-73
2021/03/09 03:31:56;;;;;;;8.60;4.85;;;-1.10;99.90;;;;;;1974005;72;21044;-73
2021/03/09 03:34:22;;;;;;;6.22;3.95;;;-1.10;99.90;;;;;;1976068;72;21102;-71
2021/03/09 03:36:48;;;;;;;8.00;3.90;;;-1.10;99.90;;;;;;1970711;72;21520;-74
2021/03/09 03:39:14;;;;;;;8.05;4.70;;;-1.20;99.90;;;;;;1975092;72;21447;-73
2021/03/09 03:41:41;;;;;;;6.60;4.45;;;-1.20;99.90;;;;;;1971465;72;21521;-74
2021/03/09 03:44:08;;;;;;;4.45;3.77;;;-1.20;99.90;;;;;;1971287;72;21112;-74
2021/03/09 03:46:34;;;;;;;8.15;4.17;;;-1.30;99.90;;;;;;1970531;72;21028;-74
2021/03/09 03:49:00;;;;;;;8.43;4.60;;;-1.20;99.90;;;;;;1973398;72;21067;-73
2021/03/09 03:51:26;;;;;;;6.58;4.08;;;-1.30;99.90;;;;;;1970221;72;21067;-74
2021/03/09 03:53:52;;;;;;;14.73;4.85;;;-1.30;99.90;;;;;;1973947;73;21095;-73
2021/03/09 03:56:18;;;;;;;7.53;4.80;;;-1.40;99.90;;;;;;1973999;72;21482;-73
2021/03/09 03:58:44;;;;;;;11.70;5.30;;;-1.40;99.90;;;;;;1976603;72;21506;-73
2021/03/09 04:01:10;;;;;;;5.42;4.08;;;-1.40;99.90;;;;;;1970284;72;21536;-74
2021/03/09 04:03:37;;;;;;;6.05;4.65;;;-1.40;99.90;;;;;;1973805;72;21561;-73
2021/03/09 04:06:03;;;;;;;14.10;5.40;;;-1.40;99.90;;;;;;1976986;72;21054;-73
2021/03/09 04:08:29;;;;;;;8.60;4.37;;;-1.40;99.90;;;;;;1975253;72;21038;-73
2021/03/09 04:10:55;;;;;;;8.95;5.03;;;-1.40;99.90;;;;;;1991020;72;21112;-73
2021/03/09 04:13:21;;;;;;;13.35;4.55;;;-1.50;99.90;;;;;;1971903;72;21123;-73
2021/03/09 04:15:47;;;;;;;6.72;4.37;;;-1.50;99.90;;;;;;1984512;72;21112;-73
2021/03/09 04:18:13;;;;;;;10.80;5.40;;;-1.50;99.90;;;;;;1979941;72;21020;-74
2021/03/09 04:20:39;;;;;;;11.03;4.85;;;-1.50;99.90;;;;;;1970859;72;21238;-74
2021/03/09 04:23:05;;;;;;;7.92;5.00;;;-1.50;99.90;;;;;;1972936;72;21120;-72
2021/03/09 04:25:32;;;;;;;18.52;5.42;;;-1.50;99.90;;;;;;1974093;73;21230;-74
2021/03/09 04:27:58;;;;;;;6.75;4.17;;;-1.50;99.90;;;;;;1977114;72;21121;-74
2021/03/09 04:30:24;;;;;;;10.15;5.37;;;-1.60;99.90;;;;;;1972292;72;21049;-74
2021/03/09 04:32:50;;;;;;;9.95;5.62;;;-1.60;99.90;;;;;;1977066;72;21062;-74
2021/03/09 04:35:16;;;;;;;8.00;5.30;;;-1.60;99.90;;;;;;1977872;72;21047;-74
2021/03/09 04:37:42;;;;;;;10.23;5.25;;;-1.70;99.90;;;;;;1967656;72;21192;-74
2021/03/09 04:40:08;;;;;;;10.30;4.85;;;-1.60;99.90;;;;;;1976179;72;21059;-74
2021/03/09 04:42:34;;;;;;;8.30;5.15;;;-1.60;99.90;;;;;;1976743;72;21075;-75
2021/03/09 04:45:01;;;;;;;7.72;5.03;;;-1.60;99.90;;;;;;1972063;72;21172;-73
2021/03/09 04:47:27;;;;;;;6.58;4.97;;;-1.60;99.90;;;;;;1984339;72;21478;-74
2021/03/09 04:49:53;;;;;;;7.60;4.85;;;-1.60;99.90;;;;;;1978737;72;21448;-74
2021/03/09 04:52:19;;;;;;;8.35;5.10;;;-1.70;99.90;;;;;;1981698;72;21569;-73
2021/03/09 04:54:45;;;;;;;10.68;5.25;;;-1.60;99.90;;;;;;1978657;72;21481;-73
2021/03/09 04:57:11;;;;;;;7.75;4.65;;;-1.70;99.90;;;;;;1978030;72;21051;-73
2021/03/09 04:59:37;;;;;;;8.90;5.17;;;-1.70;99.90;;;;;;1968074;72;21094;-74
2021/03/09 05:02:03;;;;;;;8.33;5.05;;;-1.60;99.90;;;;;;1976093;72;21105;-74
2021/03/09 05:04:30;;;;;;;6.58;4.70;;;-1.60;99.90;;;;;;1966562;72;21124;-74
2021/03/09 05:06:56;;;;;;;8.93;4.47;;;-1.70;99.90;;;;;;1971040;72;21066;-74
2021/03/09 05:09:22;;;;;;;10.08;5.12;;;-1.70;99.90;;;;;;1976661;72;21102;-73
2021/03/09 05:11:48;;;;;;;5.65;4.47;;;-1.70;99.90;;;;;;1970684;72;21040;-73
2021/03/09 05:14:14;;;;;;;11.90;5.45;;;-1.70;99.90;;;;;;1970215;72;21028;-74
2021/03/09 05:16:40;;;;;;;6.53;4.45;;;-1.70;99.90;;;;;;1980202;72;21067;-74
2021/03/09 05:19:06;;;;;;;13.13;5.90;;;-1.70;99.90;;;;;;1973731;72;21471;-74
2021/03/09 05:21:32;;;;;;;7.58;4.37;;;-1.80;99.90;;;;;;1974071;72;21061;-74
2021/03/09 05:23:59;;;;;;;11.70;4.92;;;-1.80;99.90;;;;;;1975233;72;21066;-74
2021/03/09 05:26:25;;;;;;;6.58;4.83;;;-1.80;99.90;;;;;;1974125;72;21115;-74
2021/03/09 05:28:51;;;;;;;6.05;4.58;;;-1.80;99.90;;;;;;1971222;72;21121;-74
2021/03/09 05:31:17;;;;;;;11.40;5.50;;;-1.80;99.90;;;;;;1970830;72;21056;-74
2021/03/09 05:33:43;;;;;;;7.22;4.70;;;-1.80;99.90;;;;;;1973983;73;21059;-74
2021/03/09 05:36:09;;;;;;;8.78;5.10;;;-1.80;99.90;;;;;;1974209;73;21459;-73
2021/03/09 05:38:35;;;;;;;7.67;5.37;;;-1.80;99.90;;;;;;1974138;73;21467;-74
2021/03/09 05:41:02;;;;;;;6.28;4.75;;;-1.90;99.90;;;;;;1976890;72;21412;-74
2021/03/09 05:43:28;;;;;;;6.97;4.78;;;-1.80;99.90;;;;;;1983104;72;21467;-74
2021/03/09 05:45:54;;;;;;;5.30;4.05;;;-1.80;99.90;;;;;;1970411;72;21066;-74
2021/03/09 05:48:22;;;;;;;16.55;6.28;;;-1.80;99.90;;;;;;1972316;72;21047;-74
2021/03/09 05:50:48;;;;;;;6.90;5.00;;;-1.70;99.90;;;;;;1972353;72;21114;-75
2021/03/09 05:53:14;;;;;;;8.53;5.15;;;-1.70;99.90;;;;;;1964237;72;21503;-75
2021/03/09 05:55:40;;;;;;;6.58;4.67;;;-1.70;99.90;;;;;;1973924;73;21447;-75
2021/03/09 05:58:06;;;;;;;8.88;5.17;;;-1.80;99.90;;;;;;1975769;72;21475;-75
2021/03/09 06:00:32;;;;;;;8.60;5.08;;;-1.80;99.90;;;;;;1972178;72;21507;-74
2021/03/09 06:02:58;;;;;;;7.28;4.40;;;-1.70;99.90;;;;;;1974141;73;21072;-74
2021/03/09 06:05:24;;;;;;;6.60;4.53;;;-1.70;99.90;;;;;;1977010;72;21133;-73
2021/03/09 06:07:51;;;;;;;12.55;5.70;;;-1.60;99.90;;;;;;1973858;72;21133;-73
2021/03/09 06:10:17;;;;;;;9.68;5.62;;;-1.60;99.90;;;;;;1973935;73;21089;-75
2021/03/09 06:12:43;;;;;;;30.77;6.42;;;-1.50;99.90;;;;;;1960789;72;21119;-75
2021/03/09 06:15:09;;;;;;;8.50;4.87;;;-1.60;99.90;;;;;;1985220;72;21102;-74
2021/03/09 06:17:39;;;;;;;10.32;5.62;;;-1.50;99.90;;;;;;1977782;72;21144;-73
2021/03/09 06:20:05;;;;;;;10.82;6.15;;;-1.40;99.90;;;;;;1978773;72;21132;-75
2021/03/09 06:22:31;;;;;;;10.15;6.03;;;-1.30;99.90;;;;;;1969106;72;21139;-75
2021/03/09 06:24:57;;;;;;;8.68;5.65;;;-1.30;99.90;;;;;;1977758;72;21066;-72
2021/03/09 06:27:23;;;;;;;13.75;6.42;;;-1.30;99.90;;;;;;1974087;73;21081;-74
2021/03/09 06:29:49;;;;;;;14.68;6.33;;;-1.20;99.90;;;;;;1975621;72;21040;-74
2021/03/09 06:32:16;;;;;;;12.75;6.37;;;-1.20;99.90;;;;;;1974012;72;21131;-73
2021/03/09 06:34:42;;;;;;;13.55;7.17;;;-1.20;99.90;;;;;;1970458;72;21075;-75
2021/03/09 06:37:08;;;;;;;9.85;5.67;;;-1.30;99.90;;;;;;1970195;72;21063;-74
2021/03/09 06:39:34;;;;;;;10.38;5.95;;;-1.10;99.90;;;;;;1970110;72;21127;-75
2021/03/09 06:42:02;;;;;;;7.97;5.45;;;-1.00;99.90;;;;;;1973329;72;21043;-74
2021/03/09 06:44:28;;;;;;;11.00;5.67;;;-0.90;99.90;;;;;;1970684;72;21456;-73
2021/03/09 06:46:54;;;;;;;9.10;5.53;;;-0.80;99.90;;;;;;1973843;73;21463;-74
2021/03/09 06:49:20;;;;;;;10.50;6.05;;;-0.70;99.90;;;;;;1970634;72;21463;-74
2021/03/09 06:51:48;;;;;;;9.15;6.00;;;-0.70;99.90;;;;;;1967479;72;21476;-75
2021/03/09 06:54:16;;;;;;;12.58;7.10;;;-0.70;99.90;;;;;;1983645;72;21050;-78
2021/03/09 06:56:42;;;;;;;16.05;7.40;;;-0.70;99.90;;;;;;1974973;72;21118;-75
2021/03/09 06:59:08;;;;;;;13.80;6.60;;;-0.70;99.90;;;;;;1973874;72;21060;-75
2021/03/09 07:01:34;;;;;;;11.03;6.75;;;-0.60;99.90;;;;;;1973738;72;21036;-75
2021/03/09 07:04:00;;;;;;;9.60;6.15;;;-0.70;99.90;;;;;;1973894;73;21084;-75
2021/03/09 07:06:27;;;;;;;10.82;6.03;;;-0.60;99.90;;;;;;1970352;72;21126;-75
2021/03/09 07:08:53;;;;;;;24.67;7.22;;;-0.70;99.90;;;;;;1978521;72;21208;-75
2021/03/09 07:11:19;;;;;;;17.15;7.17;;;-0.60;99.90;;;;;;1972070;72;21062;-75
2021/03/09 07:13:45;;;;;;;9.43;6.25;;;-0.60;99.90;;;;;;1970281;72;21055;-74
2021/03/09 07:16:11;;;;;;;11.05;6.12;;;-0.50;99.90;;;;;;1970497;72;21069;-74
2021/03/09 07:18:37;;;;;;;19.37;6.80;;;-0.50;99.90;;;;;;1978119;72;21153;-74
2021/03/09 07:21:03;;;;;;;14.93;6.55;;;-0.50;99.90;;;;;;1969680;72;21519;-74
2021/03/09 07:23:29;;;;;;;10.72;6.28;;;-0.50;99.90;;;;;;1978452;72;21109;-74
2021/03/09 07:25:57;;;;;;;19.30;7.95;;;-0.40;99.90;;;;;;1978019;72;21419;-76
2021/03/09 07:28:23;;;;;;;10.90;6.25;;;-0.40;99.90;;;;;;1970123;72;21071;-74
2021/03/09 07:30:49;;;;;;;13.03;6.72;;;-0.30;99.90;;;;;;1970172;72;21482;-75
2021/03/09 07:33:15;;;;;;;20.88;7.10;;;-0.20;99.90;;;;;;1973837;73;21452;-73
2021/03/09 07:35:41;;;;;;;9.25;6.12;;;-0.10;99.90;;;;;;1968537;72;21465;-75
2021/03/09 07:38:07;;;;;;;17.48;7.17;;;-0.10;99.90;;;;;;1981826;72;21051;-74
2021/03/09 07:40:33;;;;;;;14.68;7.55;;;0.00;99.90;;;;;;1972724;72;21080;-74
2021/03/09 07:43:00;;;;;;;20.00;5.87;;;0.10;99.90;;;;;;1965386;72;21050;-74
2021/03/09 07:45:26;;;;;;;14.85;6.62;;;0.20;99.90;;;;;;1974097;72;21109;-74
2021/03/09 07:47:52;;;;;;;12.70;6.75;;;0.40;99.90;;;;;;1968115;72;21050;-74
2021/03/09 07:50:19;;;;;;;9.60;6.55;;;0.30;99.90;;;;;;1978238;72;21459;-77
2021/03/09 07:52:45;;;;;;;15.32;7.22;;;0.40;99.90;;;;;;1973311;72;21499;-77
2021/03/09 07:55:12;;;;;;;11.05;6.58;;;0.50;99.90;;;;;;1974156;72;21064;-75
2021/03/09 07:57:38;;;;;;;14.07;7.12;;;0.70;99.90;;;;;;1967241;72;21112;-75
2021/03/09 08:00:04;;;;;;;12.35;6.97;;;0.80;99.90;;;;;;1983724;72;21055;-73
2021/03/09 08:02:30;;;;;;;12.90;7.30;;;0.90;99.90;;;;;;1974213;72;21063;-72
2021/03/09 08:04:56;;;;;;;10.95;7.03;;;0.80;99.90;;;;;;1974245;73;21125;-81
2021/03/09 08:07:23;;;;;;;23.67;7.65;;;0.90;99.90;;;;;;1973583;72;21123;-75
2021/03/09 08:09:49;;;;;;;16.80;8.05;;;1.00;99.90;;;;;;1971283;72;21059;-74
2021/03/09 08:12:15;;;;;;;9.00;6.75;;;1.20;99.90;;;;;;1967566;72;21131;-75
2021/03/09 08:14:41;;;;;;;12.40;7.28;;;1.00;99.90;;;;;;1978049;72;21482;-75
2021/03/09 08:17:09;;;;;;;12.35;7.33;;;1.20;99.90;;;;;;1970906;72;21556;-75
2021/03/09 08:19:35;;;;;;;17.82;7.60;;;1.20;99.90;;;;;;1985160;72;21120;-75
2021/03/09 08:22:01;;;;;;;12.73;7.35;;;1.40;99.90;;;;;;1969334;72;21056;-75
2021/03/09 08:24:27;;;;;;;23.73;8.15;;;1.70;99.90;;;;;;1972844;72;21035;-74
2021/03/09 08:26:53;;;;;;;11.57;6.97;;;1.50;99.90;;;;;;1976114;72;21099;-75
2021/03/09 08:29:19;;;;;;;13.45;7.22;;;1.80;99.90;;;;;;1971384;72;21581;-75
2021/03/09 08:31:46;;;;;;;13.88;7.47;;;2.00;99.90;;;;;;1974614;73;21556;-73
2021/03/09 08:34:12;;;;;;;13.03;7.37;;;2.00;99.90;;;;;;1974686;72;21570;-74
2021/03/09 08:36:38;;;;;;;16.12;7.60;;;2.20;99.90;;;;;;1974672;73;21036;-75
2021/03/09 08:39:14;;;;;;;11.33;6.90;;;2.20;99.90;;;;;;1974683;73;21074;-73
2021/03/09 08:41:38;;;;;;;13.40;7.08;;;2.10;99.90;;;;;;1972975;72;21146;-74
2021/03/09 08:44:04;;;;;;;17.67;7.65;;;2.20;99.90;;;;;;1971961;72;21079;-74
2021/03/09 08:46:30;;;;;;;11.40;7.42;;;2.30;99.90;;;;;;1974244;72;21113;-75
2021/03/09 08:48:56;;;;;;;15.78;7.35;;;2.30;99.90;;;;;;1990318;72;21054;-75
2021/03/09 08:51:22;;;;;;;15.35;7.20;;;2.40;99.90;;;;;;1973446;72;21144;-74
2021/03/09 08:53:48;;;;;;;10.82;6.42;;;2.60;99.90;;;;;;1974791;73;21020;-74
2021/03/09 08:56:14;;;;;;;14.03;7.35;;;2.80;99.90;;;;;;1974670;72;21470;-74
2021/03/09 08:58:41;;;;;;;12.28;7.25;;;2.90;99.90;;;;;;1974664;73;21431;-76
2021/03/09 09:01:07;;;;;;;12.63;7.20;;;2.90;99.90;;;;;;1974671;73;21055;-77
2021/03/09 09:03:33;;;;;;;22.00;7.12;;;3.30;99.90;;;;;;1974774;73;21103;-73
2021/03/09 09:05:59;;;;;;;20.77;7.85;;;3.60;99.90;;;;;;1974506;72;21060;-76
2021/03/09 09:08:26;;;;;;;11.45;6.70;;;3.60;99.90;;;;;;1974520;72;21031;-73
2021/03/09 09:10:52;;;;;;;14.55;7.55;;;3.80;99.90;;;;;;1974553;72;21059;-73
2021/03/09 09:13:18;;;;;;;12.18;6.97;;;3.60;99.90;;;;;;1973263;72;21070;-76
2021/03/09 09:15:44;;;;;;;12.88;6.80;;;3.60;99.90;;;;;;1966064;72;21069;-74
2021/03/09 09:18:10;;;;;;;12.75;7.53;;;3.70;99.90;;;;;;1976135;72;21140;-76
2021/03/09 09:20:36;;;;;;;20.92;7.60;;;3.90;99.90;;;;;;1974777;73;21500;-75
2021/03/09 09:23:03;;;;;;;15.15;7.00;;;4.20;99.90;;;;;;1977070;72;21114;-75
2021/03/09 09:25:29;;;;;;;12.82;6.92;;;4.00;99.90;;;;;;1974728;72;21040;-75
2021/03/09 09:27:57;;;;;;;12.63;7.17;;;4.10;99.90;;;;;;1974787;73;21088;-74
2021/03/09 09:30:23;;;;;;;11.55;7.40;;;4.10;99.90;;;;;;1971356;72;21627;-74
2021/03/09 09:32:49;;;;;;;14.10;6.95;;;4.00;99.90;;;;;;1971124;72;21479;-74
2021/03/09 09:35:15;;;;;;;12.20;6.92;;;3.80;99.90;;;;;;1971823;72;21129;-74
2021/03/09 09:37:41;;;;;;;18.75;6.97;;;4.10;99.90;;;;;;1979359;72;21064;-74
2021/03/09 09:40:07;;;;;;;11.90;6.45;;;4.20;99.90;;;;;;1973654;72;21024;-74
2021/03/09 09:42:33;;;;;;;15.85;7.50;;;4.40;99.90;;;;;;1963825;72;21101;-74
2021/03/09 09:45:00;;;;;;;15.35;7.30;;;4.60;99.90;;;;;;1973315;72;21048;-75
2021/03/09 09:47:26;;;;;;;11.35;7.25;;;4.90;99.90;;;;;;1974989;72;21123;-75
2021/03/09 09:49:52;;;;;;;13.68;7.30;;;5.00;99.90;;;;;;1978049;72;21059;-74
2021/03/09 09:52:21;;;;;;;12.43;6.78;;;4.90;99.90;;;;;;1970837;72;21116;-74
2021/03/09 09:54:47;;;;;;;14.28;6.92;;;4.70;99.90;;;;;;1982203;72;21059;-74
2021/03/09 09:57:15;;;;;;;14.98;6.78;;;4.40;99.90;;;;;;1984340;72;21155;-75
2021/03/09 09:59:41;;;;;;;18.62;7.83;;;4.30;99.90;;;;;;1974437;73;21076;-75
2021/03/09 10:02:07;;;;;;;15.60;7.37;;;4.50;99.90;;;;;;1977925;72;21132;-74
2021/03/09 10:04:33;;;;;;;11.45;7.35;;;4.90;99.90;;;;;;1980023;72;21046;-75
2021/03/09 10:06:59;;;;;;;14.63;7.30;;;5.20;99.90;;;;;;1982059;72;21064;-75
2021/03/09 10:09:26;;;;;;;16.80;6.87;;;5.50;99.90;;;;;;1976547;72;21051;-75
2021/03/09 10:11:52;;;;;;;16.55;7.30;;;6.00;99.90;;;;;;1972864;72;21059;-74
2021/03/09 10:14:18;;;;;;;12.40;6.97;;;5.90;99.90;;;;;;1975770;72;21056;-74
2021/03/09 10:16:44;;;;;;;12.10;6.85;;;6.10;99.90;;;;;;1973119;72;21059;-74
2021/03/09 10:19:10;;;;;;;11.12;6.42;;;6.30;99.90;;;;;;1969085;72;21136;-75
2021/03/09 10:21:37;;;;;;;17.20;7.53;;;5.50;99.90;;;;;;1971239;72;21420;-76
2021/03/09 10:24:04;;;;;;;11.75;7.85;;;5.60;99.90;;;;;;1977912;72;21082;-77
2021/03/09 10:26:30;;;;;;;13.65;7.97;;;5.90;99.90;;;;;;1975790;72;21144;-75
2021/03/09 10:28:56;;;;;;;10.23;6.42;;;6.10;99.90;;;;;;1972419;72;21467;-75
2021/03/09 10:31:22;;;;;;;12.03;6.60;;;6.10;99.90;;;;;;1974323;73;21464;-74
2021/03/09 10:33:48;;;;;;;18.15;7.75;;;6.30;99.90;;;;;;1980448;72;21475;-74
2021/03/09 10:36:14;;;;;;;22.27;7.00;;;6.30;99.90;;;;;;1962659;72;21403;-74
2021/03/09 10:38:40;;;;;;;11.30;6.75;;;6.60;99.90;;;;;;1972399;72;21047;-74
2021/03/09 10:41:07;;;;;;;13.85;7.28;;;6.90;99.90;;;;;;1974803;72;21062;-74
2021/03/09 10:43:33;;;;;;;15.93;6.53;;;7.00;99.90;;;;;;1982146;72;21171;-75
2021/03/09 10:45:59;;;;;;;13.03;7.08;;;7.70;99.90;;;;;;1979198;72;21051;-75
2021/03/09 10:48:25;;;;;;;14.93;7.30;;;8.10;99.90;;;;;;1981670;72;21140;-75
2021/03/09 10:50:51;;;;;;;13.05;6.70;;;8.20;99.90;;;;;;1977556;72;21055;-75
2021/03/09 10:53:17;;;;;;;16.77;6.60;;;7.80;99.90;;;;;;1971035;72;21140;-75
2021/03/09 10:55:43;;;;;;;12.58;7.37;;;7.70;99.90;;;;;;1970320;72;21130;-76
2021/03/09 10:58:10;;;;;;;10.95;6.33;;;7.70;99.90;;;;;;1973870;72;21140;-75
2021/03/09 11:00:36;;;;;;;10.48;6.37;;;7.40;99.90;;;;;;1972014;72;21377;-75
2021/03/09 11:03:02;;;;;;;10.40;6.45;;;7.40;99.90;;;;;;1967444;72;21564;-75
2021/03/09 11:05:28;;;;;;;10.48;6.33;;;7.40;99.90;;;;;;1974597;73;21455;-76
2021/03/09 11:07:54;;;;;;;13.45;6.37;;;7.70;99.90;;;;;;1970963;72;21171;-75
2021/03/09 11:10:20;;;;;;;10.32;6.70;;;7.50;99.90;;;;;;1977789;72;21117;-75
2021/03/09 11:12:46;;;;;;;12.23;6.25;;;7.30;99.90;;;;;;1973447;72;21023;-75
2021/03/09 11:15:12;;;;;;;11.53;5.92;;;7.20;99.90;;;;;;1984263;72;21175;-75
2021/03/09 11:17:38;;;;;;;9.25;5.87;;;7.30;99.90;;;;;;1980582;72;21203;-75
2021/03/09 11:20:05;;;;;;;9.53;5.30;;;7.80;99.90;;;;;;1980434;72;21066;-75
2021/03/09 11:22:31;;;;;;;9.23;4.72;;;8.40;99.90;;;;;;1970949;72;21061;-74
2021/03/09 11:24:57;;;;;;;9.03;5.20;;;8.90;99.90;;;;;;1978996;72;21067;-74
2021/03/09 11:27:23;;;;;;;8.58;4.70;;;8.70;99.90;;;;;;1989312;72;21447;-74
2021/03/09 11:29:49;;;;;;;12.47;4.22;;;8.70;99.90;;;;;;1977257;72;21488;-75
2021/03/09 11:32:16;;;;;;;6.85;3.75;;;9.10;99.90;;;;;;1974325;72;21467;-74
2021/03/09 11:34:42;;;;;;;7.53;3.92;;;8.60;99.90;;;;;;1971181;72;21059;-75
2021/03/09 11:37:08;;;;;;;4.92;3.25;;;8.50;99.90;;;;;;1970499;72;21066;-75
2021/03/09 11:39:34;;;;;;;7.25;2.98;;;8.70;99.90;;;;;;1987176;72;21181;-75
2021/03/09 11:42:03;;;;;;;5.00;3.45;;;8.80;99.90;;;;;;1971225;72;21117;-75
2021/03/09 11:44:30;;;;;;;5.92;3.85;;;9.20;99.90;;;;;;1986145;72;21070;-76
2021/03/09 11:46:56;;;;;;;6.85;3.67;;;9.10;99.90;;;;;;1991696;72;21078;-73
2021/03/09 11:49:22;;;;;;;6.90;3.77;;;9.30;99.90;;;;;;1971405;72;21059;-73
2021/03/09 11:51:48;;;;;;;7.08;3.60;;;9.20;99.90;;;;;;1972604;72;21142;-73
2021/03/09 11:54:16;;;;;;;6.42;3.40;;;9.50;99.90;;;;;;1974936;73;21448;-73
2021/03/09 11:56:42;;;;;;;9.53;3.95;;;9.60;99.90;;;;;;1974965;73;21047;-73
2021/03/09 11:59:08;;;;;;;7.80;3.92;;;10.10;99.90;;;;;;1974544;72;21133;-73
2021/03/09 12:01:34;;;;;;;7.00;4.10;;;10.20;99.90;;;;;;1970916;72;21095;-73
2021/03/09 12:04:00;;;;;;;6.33;3.35;;;10.00;99.90;;;;;;1974595;73;21059;-74
2021/03/09 12:06:26;;;;;;;6.58;3.92;;;10.20;99.90;;;;;;1974506;72;21024;-73
2021/03/09 12:08:52;;;;;;;7.22;3.45;;;10.20;99.90;;;;;;1974507;72;21067;-73
2021/03/09 12:11:19;;;;;;;4.72;3.20;;;9.90;99.90;;;;;;1973805;72;21464;-74
2021/03/09 12:13:46;;;;;;;9.13;4.35;;;10.10;99.90;;;;;;1974562;72;21043;-73
2021/03/09 12:16:12;;;;;;;6.50;3.45;;;10.20;99.90;;;;;;1971207;72;21055;-75
2021/03/09 12:18:38;;;;;;;5.72;3.58;;;10.40;99.90;;;;;;1970813;72;21040;-73
2021/03/09 12:21:04;;;;;;;6.87;3.62;;;10.50;99.90;;;;;;1973926;72;21106;-74
2021/03/09 12:23:30;;;;;;;4.25;3.08;;;10.50;99.90;;;;;;1974617;73;21056;-73
2021/03/09 12:25:56;;;;;;;8.53;3.25;;;10.50;99.90;;;;;;1971335;72;21219;-74
2021/03/09 12:28:22;;;;;;;4.90;2.80;;;10.50;99.90;;;;;;1974256;73;21028;-75
2021/03/09 12:30:48;;;;;;;11.05;3.15;;;11.10;99.90;;;;;;1977795;72;21052;-75
2021/03/09 12:33:16;;;;;;;8.28;3.55;;;11.40;99.20;;;;;;1974395;72;21063;-75
2021/03/09 12:35:42;;;;;;;4.40;3.40;;;11.30;98.80;;;;;;1974730;72;21153;-76
2021/03/09 12:38:09;;;;;;;6.95;3.40;;;11.30;95.10;;;;;;1974567;72;21088;-74
2021/03/09 12:40:35;;;;;;;4.58;2.87;;;10.60;98.10;;;;;;1973677;72;21464;-74